Time;durP1;ratioP1;P1;durP2;ratioP2;P2;SDS_P1;SDS_P2;PMS_P1;PMS_P2;Temp;Humidity;BMP_temperature;BMP_pressure;BME280_temperature;BME280_humidity;BME280_pressure;Samples;Min_cycle;Max_cycle;Signal;HPM_P1;HPM_P2
2022/06/02 00:01:30;;;;;;;;;2.00;2.00;;;;;17.60;42.33;101214.03;4973082;28;45672;-75
2022/06/02 00:04:11;;;;;;;;;5.75;3.00;;;;;17.59;42.60;101212.34;4973165;28;46135;-75
2022/06/02 00:06:48;;;;;;;;;3.00;3.00;;;;;17.55;42.49;101212.69;4974269;28;45704;-76
2022/06/02 00:09:34;;;;;;;;;2.25;2.25;;;;;17.51;42.48;101225.56;4972673;28;45607;-76
2022/06/02 00:12:09;;;;;;;;;4.75;3.00;;;;;17.49;42.98;101224.81;4971782;28;45408;-75
2022/06/02 00:15:12;;;;;;;;;3.50;3.25;;;;;17.49;42.84;101219.44;4973643;28;46689;-75
2022/06/02 00:18:04;;;;;;;;;2.00;2.00;;;;;17.45;42.93;101224.19;4983447;28;45696;-75
2022/06/02 00:20:32;;;;;;;;;3.75;3.00;;;;;17.40;43.24;101228.22;4970961;28;45350;-75
2022/06/02 00:23:28;;;;;;;;;2.75;2.25;;;;;17.35;43.37;101231.25;4970437;28;45385;-75
2022/06/02 00:26:16;;;;;;;;;2.00;2.00;;;;;17.33;43.53;101230.50;4973514;28;45428;-75
2022/06/02 00:28:52;;;;;;;;;2.50;2.00;;;;;17.28;43.56;101245.31;4972964;28;45455;-76
2022/06/02 00:31:29;;;;;;;;;2.00;2.00;;;;;17.23;43.72;101251.88;5000861;28;45742;-76
2022/06/02 00:34:08;;;;;;;;;2.00;2.00;;;;;17.20;43.87;101252.13;4968776;28;45357;-75
2022/06/02 00:36:45;;;;;;;;;2.50;2.00;;;;;17.17;43.97;101247.00;4971318;28;46209;-75
2022/06/02 00:39:16;;;;;;;;;3.00;3.00;;;;;17.18;44.07;101255.91;4973656;28;45396;-75
2022/06/02 00:41:58;;;;;;;;;2.00;2.00;;;;;17.13;44.22;101250.88;4969303;28;45671;-76
2022/06/02 00:44:58;;;;;;;;;2.00;2.00;;;;;17.09;44.26;101252.06;4970973;28;45541;-75
2022/06/02 00:48:01;;;;;;;;;3.75;2.25;;;;;17.08;44.43;101252.19;4964822;28;45429;-76
2022/06/02 00:50:41;;;;;;;;;3.50;2.50;;;;;17.04;44.45;101255.09;4970469;28;45653;-75
2022/06/02 00:53:31;;;;;;;;;3.25;3.25;;;;;17.02;44.70;101248.13;4970346;28;45441;-75
2022/06/02 00:59:26;;;;;;;;;4.25;3.00;;;;;16.93;44.86;101241.63;4971460;28;45816;-75
2022/06/02 01:01:51;;;;;;;;;5.50;3.00;;;;;16.92;44.96;101247.09;4970387;28;45510;-75
2022/06/02 01:04:18;;;;;;;;;3.00;3.00;;;;;16.84;44.99;101245.00;4965665;28;45561;-75
2022/06/02 01:06:46;;;;;;;;;1.00;1.00;;;;;16.81;45.31;101251.47;4968753;28;45417;-76
2022/06/02 01:09:46;;;;;;;;;2.75;2.75;;;;;16.79;45.20;101241.78;4967609;28;45544;-76
2022/06/02 01:12:29;;;;;;;;;2.00;2.00;;;;;16.78;45.35;101231.97;4931234;28;45608;-75
2022/06/02 01:15:20;;;;;;;;;2.50;2.50;;;;;16.68;45.67;101234.47;4907994;28;45528;-75
2022/06/02 01:18:13;;;;;;;;;2.75;2.75;;;;;16.65;45.82;101237.41;4931372;28;45401;-76
2022/06/02 01:20:47;;;;;;;;;3.75;2.75;;;;;16.61;46.31;101228.69;4931965;28;46430;-76
2022/06/02 01:24:07;;;;;;;;;3.00;3.00;;;;;16.56;46.19;101235.38;4909894;28;46267;-76
2022/06/02 01:26:45;;;;;;;;;5.00;4.50;;;;;16.55;46.44;101229.16;4893317;28;45422;-76
2022/06/02 01:29:46;;;;;;;;;1.25;1.25;;;;;16.52;46.50;101223.97;4913232;28;45598;-76
2022/06/02 01:32:18;;;;;;;;;2.50;2.50;;;;;16.47;46.73;101236.91;4910238;28;45665;-76
2022/06/02 01:35:04;;;;;;;;;3.75;3.75;;;;;16.42;46.79;101238.22;4911128;28;45439;-76
2022/06/02 01:37:48;;;;;;;;;4.50;2.75;;;;;16.38;47.08;101237.59;4908643;28;45479;-76
2022/06/02 01:40:22;;;;;;;;;3.50;3.50;;;;;16.35;47.09;101235.97;4910391;28;45499;-76
2022/06/02 01:42:58;;;;;;;;;3.00;3.00;;;;;16.33;47.00;101229.88;4910931;28;45504;-76
2022/06/02 01:45:26;;;;;;;;;4.75;3.50;;;;;16.33;47.25;101229.88;4919364;28;45468;-76
2022/06/02 01:48:10;;;;;;;;;2.50;2.50;;;;;16.30;47.42;101231.91;4952587;28;45753;-77
2022/06/02 01:50:53;;;;;;;;;2.50;2.50;;;;;16.29;47.33;101235.56;4951616;28;45475;-77
2022/06/02 01:53:48;;;;;;;;;1.25;1.25;;;;;16.27;47.22;101240.19;4943395;28;47144;-76
2022/06/02 01:56:32;;;;;;;;;3.25;3.00;;;;;16.25;47.64;101250.19;4926214;28;45565;-76
2022/06/02 01:58:57;;;;;;;;;2.50;2.50;;;;;16.19;47.49;101254.19;4950697;28;45486;-77
2022/06/02 02:01:32;;;;;;;;;3.00;3.00;;;;;16.17;47.62;101245.38;4931660;28;45408;-77
2022/06/02 02:04:16;;;;;;;;;4.50;4.50;;;;;16.15;47.99;101250.00;5001765;28;46311;-75
2022/06/02 02:06:49;;;;;;;;;4.00;4.00;;;;;16.09;48.00;101250.41;4966487;28;45402;-75
2022/06/02 02:09:35;;;;;;;;;3.50;3.50;;;;;16.07;48.26;101247.84;4965437;28;45581;-74
2022/06/02 02:12:01;;;;;;;;;3.50;3.50;;;;;16.02;47.92;101250.00;4970266;28;45439;-74
2022/06/02 02:14:56;;;;;;;;;5.50;5.00;;;;;16.01;48.47;101247.44;4966957;28;45458;-74
2022/06/02 02:17:41;;;;;;;;;5.75;5.75;;;;;15.97;48.32;101249.47;4962774;28;45522;-74
2022/06/02 02:20:11;;;;;;;;;4.25;3.75;;;;;15.94;48.54;101242.47;4971852;28;45528;-75
2022/06/02 02:23:07;;;;;;;;;5.50;5.50;;;;;15.93;48.49;101240.78;4969260;28;47080;-75
2022/06/02 02:25:52;;;;;;;;;4.50;4.50;;;;;15.91;48.39;101233.78;4964819;28;45461;-74
2022/06/02 02:28:42;;;;;;;;;4.50;4.50;;;;;15.88;48.75;101236.69;4969699;28;45483;-74
2022/06/02 02:31:26;;;;;;;;;4.50;4.50;;;;;15.88;48.78;101234.03;4964296;28;45499;-75
2022/06/02 02:34:25;;;;;;;;;5.00;5.00;;;;;15.85;48.89;101236.91;4970834;28;45419;-75
2022/06/02 02:37:05;;;;;;;;;4.00;4.00;;;;;15.83;48.88;101242.41;4973819;28;46107;-75
2022/06/02 02:40:02;;;;;;;;;4.50;4.50;;;;;15.81;49.25;101243.47;4968139;28;45500;-76
2022/06/02 02:42:37;;;;;;;;;5.50;4.25;;;;;15.80;48.92;101237.22;4972000;28;45475;-75
2022/06/02 02:45:35;;;;;;;;;6.25;6.25;;;;;15.73;49.47;101228.75;4972700;28;45445;-75
2022/06/02 02:48:19;;;;;;;;;5.00;5.00;;;;;15.72;49.36;101227.03;4975669;28;46115;-75
2022/06/02 02:51:02;;;;;;;;;7.75;7.75;;;;;15.70;49.53;101231.63;4972961;28;45723;-75
2022/06/02 02:53:51;;;;;;;;;4.25;4.25;;;;;15.70;49.43;101233.47;4970034;28;45494;-75
2022/06/02 02:56:29;;;;;;;;;6.25;5.75;;;;;15.67;49.38;101236.34;4971017;28;45682;-75
2022/06/02 02:58:54;;;;;;;;;5.00;5.00;;;;;15.64;49.67;101248.16;4975794;28;45303;-75
2022/06/02 03:01:46;;;;;;;;;6.00;6.00;;;;;15.60;49.99;101243.94;4990867;28;48064;-75
2022/06/02 03:04:21;;;;;;;;;6.25;6.25;;;;;15.52;50.15;101244.47;4976766;28;45500;-75
2022/06/02 03:06:54;;;;;;;;;8.00;6.75;;;;;15.50;50.25;101246.41;4977180;28;45475;-75
2022/06/02 03:09:25;;;;;;;;;6.75;5.75;;;;;15.48;50.13;101244.81;4977227;28;46186;-75
2022/06/02 03:11:53;;;;;;;;;5.50;5.50;;;;;15.43;50.70;101242.44;4977051;28;46456;-76
2022/06/02 03:14:43;;;;;;;;;5.00;5.00;;;;;15.37;50.68;101240.19;4977020;28;45390;-75
2022/06/02 03:17:44;;;;;;;;;5.75;5.50;;;;;15.36;50.76;101235.75;4971713;28;45492;-76
2022/06/02 03:20:31;;;;;;;;;6.50;6.25;;;;;15.31;50.76;101228.03;4955219;28;46150;-76
2022/06/02 03:23:20;;;;;;;;;6.00;6.00;;;;;15.27;50.56;101231.91;4955583;28;45488;-76
2022/06/02 03:25:53;;;;;;;;;6.00;6.00;;;;;15.23;50.90;101237.56;4955239;28;45585;-77
2022/06/02 03:28:21;;;;;;;;;5.00;5.00;;;;;15.21;50.90;101245.72;4955664;28;45657;-74
2022/06/02 03:31:23;;;;;;;;;6.00;6.00;;;;;15.18;51.19;101243.25;4955715;28;46295;-76
2022/06/02 03:34:27;;;;;;;;;6.50;6.50;;;;;15.15;51.03;101243.44;4937243;28;45517;-75
2022/06/02 03:37:11;;;;;;;;;6.00;6.00;;;;;15.15;51.31;101247.94;4886792;29;45515;-75
2022/06/02 03:39:57;;;;;;;;;6.75;5.75;;;;;15.10;51.06;101251.81;4882048;29;45369;-75
2022/06/02 03:42:22;;;;;;;;;7.25;7.25;;;;;15.05;51.45;101253.91;4880217;29;47518;-75
2022/06/02 03:45:02;;;;;;;;;7.25;6.75;;;;;15.04;51.57;101246.84;4897954;29;45339;-75
2022/06/02 03:47:30;;;;;;;;;8.00;6.00;;;;;15.03;51.67;101247.81;4897363;29;45644;-75
2022/06/02 03:49:55;;;;;;;;;6.25;6.25;;;;;14.99;51.62;101248.97;4896817;29;45606;-76
2022/06/02 03:52:39;;;;;;;;;7.00;7.00;;;;;14.97;51.77;101252.72;4896742;29;48024;-75
2022/06/02 03:55:27;;;;;;;;;6.50;6.50;;;;;14.96;52.02;101264.41;4881995;29;46009;-76
2022/06/02 03:58:12;;;;;;;;;7.50;7.50;;;;;14.94;51.97;101255.63;4885211;29;47851;-76
2022/06/02 04:00:52;;;;;;;;;6.25;6.25;;;;;14.91;52.08;101256.66;4883611;29;45393;-74
2022/06/02 04:03:46;;;;;;;;;6.50;5.50;;;;;14.90;52.02;101249.59;4895755;29;45612;-74
2022/06/02 04:06:23;;;;;;;;;9.00;7.75;;;;;14.89;52.04;101253.25;4895800;29;45636;-77
2022/06/02 04:09:21;;;;;;;;;6.50;6.50;;;;;14.86;51.82;101251.63;4975093;28;45500;-78
2022/06/02 04:14:57;;;;;;;;;8.00;8.00;;;;;14.87;51.93;101258.69;4969265;28;45528;-77
2022/06/02 04:17:38;;;;;;;;;6.75;6.75;;;;;14.86;52.02;101258.78;4944801;28;45441;-76
2022/06/02 04:20:36;;;;;;;;;9.25;8.25;;;;;14.85;52.24;101260.63;4960747;28;45406;-76
2022/06/02 04:23:20;;;;;;;;;10.00;8.25;;;;;14.83;52.31;101267.88;4960275;28;45504;-76
2022/06/02 04:25:55;;;;;;;;;8.00;6.25;;;;;14.85;52.40;101265.97;4949963;28;46872;-78
2022/06/02 04:28:30;;;;;;;;;8.00;8.00;;;;;14.84;52.19;101263.38;4967913;28;45533;-78
2022/06/02 04:31:17;;;;;;;;;7.50;7.50;;;;;14.83;52.46;101270.56;4968686;28;45449;-77
2022/06/02 04:33:51;;;;;;;;;6.25;6.25;;;;;14.83;52.61;101280.44;4957199;28;45873;-76
2022/06/02 04:36:35;;;;;;;;;7.50;6.75;;;;;14.83;52.54;101275.06;4969534;28;48572;-76
2022/06/02 04:39:27;;;;;;;;;9.50;8.00;;;;;14.82;52.60;101282.25;4957297;28;45406;-76
2022/06/02 04:42:14;;;;;;;;;8.00;7.00;;;;;14.86;52.87;101297.19;4958077;28;45777;-76
2022/06/02 04:45:08;;;;;;;;;8.00;8.00;;;;;14.90;52.46;101293.34;4944266;28;45440;-76
2022/06/02 04:47:51;;;;;;;;;7.00;7.00;;;;;14.94;52.41;101298.53;4961956;28;45521;-76
2022/06/02 04:50:40;;;;;;;;;7.75;7.75;;;;;14.93;52.38;101278.00;4974521;28;45405;-76
2022/06/02 04:53:17;;;;;;;;;8.25;8.25;;;;;14.97;52.80;101284.91;4975581;28;45456;-77
2022/06/02 04:56:30;;;;;;;;;7.25;7.25;;;;;14.99;52.34;101280.31;4973153;28;45887;-76
2022/06/02 04:59:11;;;;;;;;;8.00;7.00;;;;;15.01;52.69;101289.06;4942300;28;45595;-77
2022/06/02 05:01:54;;;;;;;;;9.00;7.75;;;;;15.04;52.51;101284.38;4939945;28;45930;-77
2022/06/02 05:04:31;;;;;;;;;10.00;9.00;;;;;15.11;52.49;101277.66;4923897;28;45429;-77
2022/06/02 05:07:27;;;;;;;;;7.75;7.25;;;;;15.16;51.94;101285.41;4940027;28;45644;-77
2022/06/02 05:10:11;;;;;;;;;9.00;8.00;;;;;15.21;52.16;101280.59;4948914;28;46430;-78
2022/06/02 05:13:04;;;;;;;;;8.00;8.00;;;;;15.28;51.96;101281.91;4934869;28;45475;-77
2022/06/02 05:15:35;;;;;;;;;9.00;9.00;;;;;15.36;51.83;101280.53;4952134;28;45545;-78
2022/06/02 05:18:29;;;;;;;;;9.00;7.00;;;;;15.43;51.79;101279.13;4950948;28;45482;-77
2022/06/02 05:21:06;;;;;;;;;9.00;9.00;;;;;15.47;51.47;101267.25;4954282;28;45744;-77
2022/06/02 05:23:59;;;;;;;;;8.50;8.25;;;;;15.48;51.63;101271.63;4949838;28;45449;-77
2022/06/02 05:26:39;;;;;;;;;8.00;7.00;;;;;15.57;51.36;101278.22;4940124;28;45784;-77
2022/06/02 05:29:45;;;;;;;;;8.25;8.25;;;;;15.59;51.23;101282.50;4940386;28;45354;-76
2022/06/02 05:32:56;;;;;;;;;7.00;7.00;;;;;15.60;50.80;101280.66;4945649;28;46446;-76
2022/06/02 05:35:37;;;;;;;;;11.50;11.50;;;;;15.59;51.18;101287.88;4975446;28;45366;-76
2022/06/02 05:38:36;;;;;;;;;8.75;8.75;;;;;15.67;51.06;101274.78;4979405;28;45484;-76
2022/06/02 05:41:39;;;;;;;;;8.00;8.00;;;;;15.76;51.07;101273.31;4975458;28;45526;-76
2022/06/02 05:44:22;;;;;;;;;8.25;6.25;;;;;15.78;50.46;101274.06;4975199;28;46513;-76
2022/06/02 05:47:09;;;;;;;;;9.50;8.75;;;;;15.84;50.51;101278.16;4981141;28;45327;-77
2022/06/02 05:49:34;;;;;;;;;8.00;7.50;;;;;15.91;50.37;101276.75;4975394;28;45524;-76
2022/06/02 05:52:30;;;;;;;;;7.50;7.50;;;;;15.93;50.12;101286.41;5007116;28;45578;-76
2022/06/02 05:55:08;;;;;;;;;9.50;9.50;;;;;15.99;50.11;101277.06;4974811;28;46300;-76
2022/06/02 05:57:44;;;;;;;;;8.25;8.25;;;;;16.08;49.97;101281.78;4960919;28;45574;-76
2022/06/02 06:00:35;;;;;;;;;9.75;9.00;;;;;16.13;49.98;101279.63;4975171;28;49730;-76
2022/06/02 06:03:25;;;;;;;;;6.25;6.25;;;;;16.11;50.21;101278.03;4972597;28;45435;-77
2022/06/02 06:05:57;;;;;;;;;9.00;9.00;;;;;16.15;49.87;101280.38;5006887;28;48464;-76
2022/06/02 06:09:05;;;;;;;;;8.75;8.25;;;;;16.21;49.80;101278.22;4975970;28;45407;-76
2022/06/02 06:11:46;;;;;;;;;10.50;10.50;;;;;16.18;49.99;101273.94;4973755;28;45364;-76
2022/06/02 06:14:40;;;;;;;;;11.25;10.00;;;;;16.17;49.58;101277.59;4978271;28;45369;-76
2022/06/02 06:17:24;;;;;;;;;8.00;7.00;;;;;16.22;49.87;101283.50;4978297;28;45661;-77
2022/06/02 06:20:06;;;;;;;;;10.25;8.50;;;;;16.29;49.72;101286.63;5002899;28;45461;-76
2022/06/02 06:22:44;;;;;;;;;10.00;9.75;;;;;16.31;49.95;101293.59;4971865;28;45582;-77
2022/06/02 06:25:31;;;;;;;;;8.50;8.50;;;;;16.33;49.80;101286.28;4978329;28;45625;-77
2022/06/02 06:28:15;;;;;;;;;7.25;6.50;;;;;16.35;49.82;101284.31;4978245;28;46406;-76
2022/06/02 06:30:59;;;;;;;;;13.00;12.00;;;;;16.39;49.13;101288.53;4965085;28;45428;-77
2022/06/02 06:33:51;;;;;;;;;11.00;11.00;;;;;16.38;49.59;101286.81;4994179;28;47405;-76
2022/06/02 06:36:38;;;;;;;;;9.75;9.75;;;;;16.45;49.66;101284.56;4977238;28;45555;-77
2022/06/02 06:39:42;;;;;;;;;11.50;11.50;;;;;16.46;49.72;101278.19;5006527;28;47228;-76
2022/06/02 06:42:37;;;;;;;;;11.00;11.00;;;;;16.45;49.33;101275.63;4978159;28;45501;-76
2022/06/02 06:45:29;;;;;;;;;13.50;12.00;;;;;16.47;49.45;101285.28;5007026;28;45392;-76
2022/06/02 06:48:41;;;;;;;;;13.00;12.00;;;;;16.49;50.03;101277.13;4978940;28;45347;-76
2022/06/02 06:51:44;;;;;;;;;13.00;11.75;;;;;16.55;49.78;101274.00;4952911;28;46166;-76
2022/06/02 06:54:37;;;;;;;;;15.75;14.75;;;;;16.56;50.41;101281.94;4955444;28;45530;-76
2022/06/02 06:57:16;;;;;;;;;13.50;11.25;;;;;16.64;49.99;101288.56;4938485;28;45417;-76
2022/06/02 07:00:06;;;;;;;;;11.50;11.50;;;;;16.72;50.02;101288.91;4956445;28;45470;-76
2022/06/02 07:03:04;;;;;;;;;7.50;7.50;;;;;16.79;50.04;101296.44;4955568;28;45489;-76
2022/06/02 07:05:37;;;;;;;;;10.00;10.00;;;;;16.83;50.47;101288.97;4956231;28;45620;-76
2022/06/02 07:08:31;;;;;;;;;13.75;11.75;;;;;16.88;50.15;101286.81;4954297;28;45490;-76
2022/06/02 07:14:19;;;;;;;;;7.00;7.00;;;;;16.92;49.60;101288.31;4890369;29;45995;-77
2022/06/02 07:16:55;;;;;;;;;9.75;8.50;;;;;16.96;48.90;101292.50;4888950;29;45612;-76
2022/06/02 07:19:42;;;;;;;;;9.75;9.75;;;;;17.07;49.08;101299.75;4883944;29;45360;-77
2022/06/02 07:22:25;;;;;;;;;7.00;7.00;;;;;17.12;49.01;101302.09;4884081;29;45565;-76
2022/06/02 07:25:19;;;;;;;;;8.75;8.25;;;;;17.18;49.17;101309.72;4883517;29;46551;-76
2022/06/02 07:28:01;;;;;;;;;7.25;6.25;;;;;17.25;49.31;101308.28;4881221;28;45579;-76
2022/06/02 07:31:06;;;;;;;;;7.00;6.00;;;;;17.34;48.97;101301.34;4892056;28;45537;-77
2022/06/02 07:33:55;;;;;;;;;9.25;9.00;;;;;17.46;48.94;101292.31;4897595;29;45510;-77
2022/06/02 07:36:38;;;;;;;;;8.25;8.25;;;;;17.52;48.36;101299.09;4881629;29;45622;-77
2022/06/02 07:39:15;;;;;;;;;4.75;4.75;;;;;17.58;48.38;101291.41;4898017;29;45413;-77
2022/06/02 07:41:59;;;;;;;;;6.00;5.00;;;;;17.64;48.59;101293.63;4883717;29;45500;-77
2022/06/02 07:44:45;;;;;;;;;8.50;7.75;;;;;17.73;48.37;101304.66;4886531;28;45443;-77
2022/06/02 07:47:38;;;;;;;;;7.50;5.50;;;;;17.83;48.39;101298.47;4905725;28;46348;-77
2022/06/02 07:50:29;;;;;;;;;8.00;8.00;;;;;17.96;47.95;101310.97;4999443;28;45581;-77
2022/06/02 07:53:10;;;;;;;;;6.00;6.00;;;;;18.04;46.84;101303.16;4973263;28;45549;-77
2022/06/02 07:56:12;;;;;;;;;8.25;8.25;;;;;18.16;47.04;101309.41;4976815;28;45386;-77
2022/06/02 07:59:00;;;;;;;;;8.00;6.50;;;;;18.15;46.58;101305.00;4975684;28;45823;-79
2022/06/02 08:02:03;;;;;;;;;5.25;5.25;;;;;18.23;46.67;101307.94;5008171;28;45325;-76
2022/06/02 08:05:03;;;;;;;;;5.75;4.50;;;;;18.29;46.58;101294.84;4975300;28;45509;-76
2022/06/02 08:08:21;;;;;;;;;5.75;5.75;;;;;18.39;45.55;101300.34;4916157;28;45425;-76
2022/06/02 08:11:13;;;;;;;;;4.75;4.75;;;;;18.47;46.04;101284.44;4840838;29;46028;-76
2022/06/02 08:13:53;;;;;;;;;7.75;6.25;;;;;18.52;46.15;101284.91;4841072;29;45425;-76
2022/06/02 08:16:53;;;;;;;;;8.75;6.75;;;;;18.67;46.38;101290.88;4825317;29;45417;-76
2022/06/02 08:19:29;;;;;;;;;5.00;5.00;;;;;18.75;46.42;101274.06;4841206;29;45436;-76
2022/06/02 08:21:58;;;;;;;;;5.25;5.25;;;;;18.84;46.20;101276.06;4841129;29;45544;-76
2022/06/02 08:24:27;;;;;;;;;6.25;6.25;;;;;18.92;45.65;101278.13;4840894;29;45509;-76
2022/06/02 08:26:58;;;;;;;;;3.50;3.50;;;;;19.01;45.52;101276.50;4837687;29;45404;-76
2022/06/02 08:29:38;;;;;;;;;4.75;4.75;;;;;19.13;45.65;101273.63;4841221;29;45636;-76
2022/06/02 08:32:21;;;;;;;;;5.00;4.00;;;;;19.23;45.02;101271.00;4839261;29;45772;-76
2022/06/02 08:35:05;;;;;;;;;5.00;5.00;;;;;19.35;44.74;101277.22;4840473;29;45383;-75
2022/06/02 08:37:45;;;;;;;;;5.50;5.00;;;;;19.49;44.86;101259.84;4840497;29;45412;-75
2022/06/02 08:40:48;;;;;;;;;6.00;4.75;;;;;19.68;44.68;101256.47;4840336;29;45477;-75
2022/06/02 08:43:40;;;;;;;;;6.50;5.50;;;;;19.83;44.39;101252.41;4767521;29;45556;-75
2022/06/02 08:46:31;;;;;;;;;5.75;5.75;;;;;19.94;43.57;101252.34;4835720;28;45369;-75
2022/06/02 08:49:18;;;;;;;;;5.00;5.00;;;;;20.05;42.79;101245.13;4914742;28;45480;-76
2022/06/02 08:52:06;;;;;;;;;4.75;4.75;;;;;20.20;43.01;101243.75;4902121;28;45532;-75
2022/06/02 08:54:58;;;;;;;;;4.00;4.00;;;;;20.38;43.08;101249.38;4914400;28;47114;-75
2022/06/02 08:57:51;;;;;;;;;3.75;3.75;;;;;20.52;42.95;101242.75;4914677;28;45520;-75
2022/06/02 09:01:00;;;;;;;;;4.00;4.00;;;;;20.64;42.21;101237.09;4914603;28;45545;-75
2022/06/02 09:04:02;;;;;;;;;7.00;5.00;;;;;20.71;41.74;101248.22;4842905;29;45596;-75
2022/06/02 09:06:52;;;;;;;;;3.75;3.75;;;;;20.74;41.37;101245.25;4856339;29;46419;-75
2022/06/02 09:09:23;;;;;;;;;5.75;4.25;;;;;20.79;41.18;101244.81;4856813;29;45370;-75
2022/06/02 09:12:13;;;;;;;;;3.50;3.50;;;;;20.79;40.93;101242.13;4839873;29;45437;-75
2022/06/02 09:15:06;;;;;;;;;4.00;4.00;;;;;20.85;40.61;101242.41;4831142;29;45345;-75
2022/06/02 09:18:00;;;;;;;;;3.75;3.75;;;;;20.87;40.47;101236.84;4878298;29;46469;-75
2022/06/02 09:20:40;;;;;;;;;6.00;6.00;;;;;20.91;40.58;101243.69;4915023;28;45529;-75
2022/06/02 09:23:14;;;;;;;;;3.75;3.75;;;;;21.02;39.88;101251.69;4915328;28;45642;-75
2022/06/02 09:26:10;;;;;;;;;3.25;3.25;;;;;21.10;40.65;101247.41;4899402;28;45621;-75
2022/06/02 09:29:09;;;;;;;;;4.00;4.00;;;;;21.18;40.55;101242.97;4915414;28;46150;-75
2022/06/02 09:31:44;;;;;;;;;4.75;4.75;;;;;21.31;39.94;101252.66;4899483;28;45458;-75
2022/06/02 09:34:41;;;;;;;;;3.25;3.25;;;;;21.41;39.46;101253.56;4899182;28;45418;-76
2022/06/02 09:37:29;;;;;;;;;4.00;4.00;;;;;21.46;40.15;101256.69;4915369;28;45451;-75
2022/06/02 09:40:22;;;;;;;;;3.00;3.00;;;;;21.56;38.78;101257.53;4931995;28;45323;-75
2022/06/02 09:43:25;;;;;;;;;4.50;4.50;;;;;21.68;39.16;101253.66;4962344;28;45333;-75
2022/06/02 09:46:25;;;;;;;;;4.50;3.00;;;;;21.75;38.95;101259.34;4994704;28;45420;-75
2022/06/02 09:49:28;;;;;;;;;3.25;3.25;;;;;21.84;38.34;101253.06;4943431;28;45569;-75
2022/06/02 09:52:19;;;;;;;;;4.50;4.00;;;;;21.92;38.27;101247.75;4971587;28;45552;-75
2022/06/02 09:55:02;;;;;;;;;4.25;4.25;;;;;22.02;37.97;101250.41;4971845;28;45669;-75
2022/06/02 09:57:56;;;;;;;;;3.25;3.25;;;;;22.08;38.20;101252.53;4971929;28;45394;-75
2022/06/02 10:00:40;;;;;;;;;4.00;4.00;;;;;22.14;37.43;101248.38;4971599;28;45443;-75
2022/06/02 10:03:40;;;;;;;;;4.25;4.00;;;;;22.15;37.79;101254.66;4955712;28;47380;-75
2022/06/02 10:06:08;;;;;;;;;4.50;4.50;;;;;22.23;38.01;101247.50;4969512;28;45433;-75
2022/06/02 10:08:58;;;;;;;;;4.25;4.25;;;;;22.36;37.42;101238.19;4951560;28;45347;-75
2022/06/02 10:11:32;;;;;;;;;4.00;4.00;;;;;22.47;37.05;101238.81;4970458;28;45464;-75
2022/06/02 10:14:25;;;;;;;;;6.00;4.00;;;;;22.52;36.48;101241.94;4950133;28;47457;-75
2022/06/02 10:17:22;;;;;;;;;2.50;2.50;;;;;22.63;36.47;101235.44;4965784;28;45541;-75
2022/06/02 10:20:20;;;;;;;;;5.75;5.00;;;;;22.69;36.02;101225.84;4971213;28;45533;-75
2022/06/02 10:22:59;;;;;;;;;6.25;6.25;;;;;22.74;36.36;101228.94;4949176;28;45533;-75
2022/06/02 10:26:01;;;;;;;;;4.50;3.50;;;;;22.83;35.76;101224.47;4956642;28;47404;-75
2022/06/02 10:29:00;;;;;;;;;3.25;3.25;;;;;23.01;35.38;101214.47;4973300;28;45325;-75
2022/06/02 10:32:06;;;;;;;;;4.00;4.00;;;;;23.05;35.55;101215.88;4973642;28;45526;-75
2022/06/02 10:35:08;;;;;;;;;4.25;4.25;;;;;23.13;35.47;101212.38;4968048;28;45572;-75
2022/06/02 10:37:49;;;;;;;;;5.00;5.00;;;;;23.27;35.63;101200.09;4974522;28;45455;-75
2022/06/02 10:40:23;;;;;;;;;3.00;3.00;;;;;23.42;34.91;101201.22;4980335;28;46376;-75
2022/06/02 10:43:26;;;;;;;;;4.00;4.00;;;;;23.57;34.69;101206.94;4974823;28;46114;-75
2022/06/02 10:46:33;;;;;;;;;5.75;5.75;;;;;23.74;35.00;101203.34;4962809;28;45464;-75
2022/06/02 10:49:26;;;;;;;;;5.00;5.00;;;;;23.87;33.86;101205.63;4908854;28;45699;-75
2022/06/02 10:52:13;;;;;;;;;3.00;3.00;;;;;24.05;33.46;101208.25;4879140;28;45509;-75
2022/06/02 10:54:56;;;;;;;;;3.00;3.00;;;;;24.27;33.80;101200.53;4905500;28;45487;-76
2022/06/02 10:57:34;;;;;;;;;5.00;5.00;;;;;24.40;32.14;101203.66;4902432;28;45497;-75
2022/06/02 11:00:23;;;;;;;;;3.00;2.00;;;;;24.53;32.86;101204.03;4915936;28;46700;-76
2022/06/02 11:03:09;;;;;;;;;8.75;8.75;;;;;24.70;32.48;101202.22;4920040;28;45527;-76
2022/06/02 11:05:55;;;;;;;;;3.00;3.00;;;;;24.92;32.14;101197.13;4838477;29;45536;-77
2022/06/02 11:08:34;;;;;;;;;2.75;2.75;;;;;25.12;31.60;101184.91;4838407;29;45473;-78
2022/06/02 11:11:36;;;;;;;;;3.25;2.25;;;;;25.11;31.24;101188.66;4841822;29;45940;-77
2022/06/02 11:14:26;;;;;;;;;3.00;3.00;;;;;25.27;31.23;101174.19;4837720;29;45825;-76
2022/06/02 11:17:19;;;;;;;;;3.50;3.50;;;;;25.45;31.13;101171.28;4822218;29;45328;-77
2022/06/02 11:20:20;;;;;;;;;6.25;6.00;;;;;25.71;30.47;101166.44;4841962;29;45480;-77
2022/06/02 11:23:10;;;;;;;;;4.00;4.00;;;;;25.86;30.34;101174.78;4836878;29;46358;-77
2022/06/02 11:26:13;;;;;;;;;5.00;5.00;;;;;26.04;29.88;101162.75;4871440;29;45450;-77
2022/06/02 11:29:09;;;;;;;;;4.50;3.50;;;;;26.10;29.40;101159.34;4879095;29;45461;-77
2022/06/02 11:31:49;;;;;;;;;4.25;3.25;;;;;26.08;29.78;101164.97;4842772;29;45416;-76
2022/06/02 11:34:26;;;;;;;;;3.00;3.00;;;;;26.06;29.81;101168.91;4841492;29;46380;-77
2022/06/02 11:37:10;;;;;;;;;4.00;4.00;;;;;26.09;29.18;101163.94;4841707;29;45677;-76
2022/06/02 11:39:52;;;;;;;;;4.00;4.00;;;;;26.14;29.40;101147.03;4841917;29;45513;-76
2022/06/02 11:42:26;;;;;;;;;5.50;4.00;;;;;26.29;29.19;101155.28;4878031;28;47812;-76
2022/06/02 11:45:20;;;;;;;;;4.00;4.00;;;;;26.32;28.82;101157.69;4951777;28;45586;-76
2022/06/02 11:48:14;;;;;;;;;3.25;3.25;;;;;26.43;29.14;101156.41;4954588;28;45497;-77
2022/06/02 11:51:09;;;;;;;;;4.00;4.00;;;;;26.55;28.97;101149.53;4931681;28;45460;-79
2022/06/02 11:54:19;;;;;;;;;3.75;3.75;;;;;26.59;27.89;101137.22;4939485;28;45649;-79
2022/06/02 11:57:19;;;;;;;;;3.25;3.00;;;;;26.55;28.59;101144.97;4938954;28;45560;-79
2022/06/02 12:00:26;;;;;;;;;3.00;3.00;;;;;26.41;28.25;101139.38;4894002;29;45528;-79
2022/06/02 12:03:17;;;;;;;;;4.75;4.00;;;;;26.38;29.03;101137.00;4894006;29;45547;-78
2022/06/02 12:06:13;;;;;;;;;3.50;3.50;;;;;26.46;29.26;101134.25;4894662;29;45577;-80
2022/06/02 12:09:00;;;;;;;;;3.50;3.50;;;;;26.55;29.54;101136.75;4915792;28;45731;-78
2022/06/02 12:11:59;;;;;;;;;4.25;4.25;;;;;26.61;28.91;101131.59;4930250;28;45542;-78
2022/06/02 12:14:44;;;;;;;;;3.00;3.00;;;;;26.59;28.73;101139.97;4936224;28;45866;-78
2022/06/02 12:17:21;;;;;;;;;3.75;3.75;;;;;26.64;28.60;101133.97;4916448;28;45508;-78
2022/06/02 12:19:58;;;;;;;;;5.50;4.00;;;;;26.61;28.86;101121.53;4931177;28;45550;-78
2022/06/02 12:22:43;;;;;;;;;3.00;3.00;;;;;26.64;29.12;101115.69;4935466;28;45512;-78
2022/06/02 12:25:23;;;;;;;;;3.00;3.00;;;;;26.74;29.10;101118.16;4930053;28;45463;-79
2022/06/02 12:28:13;;;;;;;;;4.00;4.00;;;;;26.87;29.12;101112.09;4935508;28;45355;-78
2022/06/02 12:30:57;;;;;;;;;3.00;3.00;;;;;27.02;28.94;101101.22;4921965;28;45569;-78
2022/06/02 12:33:44;;;;;;;;;4.25;4.00;;;;;27.14;28.03;101095.09;4934432;28;45521;-78
2022/06/02 12:36:41;;;;;;;;;2.00;2.00;;;;;27.23;28.08;101090.44;4967206;28;45451;-79
2022/06/02 12:39:34;;;;;;;;;5.00;4.00;;;;;27.42;28.42;101078.09;4974622;28;45457;-80
2022/06/02 12:42:37;;;;;;;;;4.00;4.00;;;;;27.51;27.42;101081.56;4978396;28;46132;-77
2022/06/02 12:45:08;;;;;;;;;4.00;4.00;;;;;27.63;27.95;101075.41;5007724;28;45382;-77
2022/06/02 12:47:59;;;;;;;;;3.25;3.25;;;;;27.74;26.81;101081.47;4976266;28;45350;-84
2022/06/02 12:50:28;;;;;;;;;6.50;5.00;;;;;27.59;26.99;101076.00;4972157;28;45704;-83
2022/06/02 12:52:59;;;;;;;;;4.25;4.25;;;;;27.52;26.44;101069.59;4974599;28;47325;-81
2022/06/02 12:55:58;;;;;;;;;2.00;2.00;;;;;27.52;26.19;101067.72;4975768;28;45566;-81
2022/06/02 12:58:35;;;;;;;;;3.50;3.50;;;;;27.57;26.79;101070.72;5003930;28;45396;-83
2022/06/02 13:01:12;;;;;;;;;4.00;2.50;;;;;27.65;26.61;101069.75;4965443;28;45431;-82
2022/06/02 13:03:52;;;;;;;;;3.00;3.00;;;;;27.71;26.09;101077.22;4976060;28;45734;-81